sensor_id;sensor_type;location;lat;lon;timestamp;temperature;humidity
13596;DHT22;6868;52.544;13.416;2022-09-09T00:00:40;15.50;99.90
13596;DHT22;6868;52.544;13.416;2022-09-09T00:03:10;15.50;99.90
13596;DHT22;6868;52.544;13.416;2022-09-09T00:05:38;15.50;99.90
13596;DHT22;6868;52.544;13.416;2022-09-09T00:08:09;15.60;99.90
13596;DHT22;6868;52.544;13.416;2022-09-09T00:10:41;15.60;99.90
13596;DHT22;6868;52.544;13.416;2022-09-09T00:13:12;15.70;99.90
13596;DHT22;6868;52.544;13.416;2022-09-09T00:15:46;15.70;99.90
13596;DHT22;6868;52.544;13.416;2022-09-09T00:18:18;15.60;99.90
13596;DHT22;6868;52.544;13.416;2022-09-09T00:20:57;15.50;99.90
13596;DHT22;6868;52.544;13.416;2022-09-09T00:23:25;15.50;99.90
13596;DHT22;6868;52.544;13.416;2022-09-09T00:26:01;15.40;99.90
13596;DHT22;6868;52.544;13.416;2022-09-09T00:28:28;15.40;99.90
13596;DHT22;6868;52.544;13.416;2022-09-09T00:31:00;15.60;99.90
13596;DHT22;6868;52.544;13.416;2022-09-09T00:33:31;15.70;99.90
13596;DHT22;6868;52.544;13.416;2022-09-09T00:35:57;15.40;99.90
13596;DHT22;6868;52.544;13.416;2022-09-09T00:38:25;15.40;99.90
13596;DHT22;6868;52.544;13.416;2022-09-09T00:40:55;15.40;99.90
13596;DHT22;6868;52.544;13.416;2022-09-09T00:43:26;15.60;99.90
13596;DHT22;6868;52.544;13.416;2022-09-09T00:45:59;15.60;99.90
13596;DHT22;6868;52.544;13.416;2022-09-09T00:48:36;15.40;99.90
13596;DHT22;6868;52.544;13.416;2022-09-09T00:51:05;15.40;99.90
13596;DHT22;6868;52.544;13.416;2022-09-09T00:53:37;15.30;99.90
13596;DHT22;6868;52.544;13.416;2022-09-09T00:56:09;15.30;99.90
13596;DHT22;6868;52.544;13.416;2022-09-09T00:58:38;15.30;99.90
13596;DHT22;6868;52.544;13.416;2022-09-09T01:01:05;15.20;99.90
13596;DHT22;6868;52.544;13.416;2022-09-09T01:03:35;15.30;99.90
13596;DHT22;6868;52.544;13.416;2022-09-09T01:06:12;15.30;99.90
13596;DHT22;6868;52.544;13.416;2022-09-09T01:11:26;15.20;99.90
13596;DHT22;6868;52.544;13.416;2022-09-09T01:14:03;15.10;99.90
13596;DHT22;6868;52.544;13.416;2022-09-09T01:16:36;15.10;99.90
13596;DHT22;6868;52.544;13.416;2022-09-09T01:19:05;15.10;99.90
13596;DHT22;6868;52.544;13.416;2022-09-09T01:21:46;15.10;99.90
13596;DHT22;6868;52.544;13.416;2022-09-09T01:24:16;14.60;99.90
13596;DHT22;6868;52.544;13.416;2022-09-09T01:26:47;15.10;99.90
13596;DHT22;6868;52.544;13.416;2022-09-09T01:31:52;15.00;99.90
13596;DHT22;6868;52.544;13.416;2022-09-09T01:34:19;15.00;99.90
13596;DHT22;6868;52.544;13.416;2022-09-09T01:36:47;15.00;99.90
13596;DHT22;6868;52.544;13.416;2022-09-09T01:39:16;15.00;99.90
13596;DHT22;6868;52.544;13.416;2022-09-09T01:41:43;15.10;99.90
13596;DHT22;6868;52.544;13.416;2022-09-09T01:44:12;15.10;99.90
13596;DHT22;6868;52.544;13.416;2022-09-09T01:46:39;15.00;99.90
13596;DHT22;6868;52.544;13.416;2022-09-09T01:49:06;15.00;99.90
13596;DHT22;6868;52.544;13.416;2022-09-09T01:51:33;15.00;99.90
13596;DHT22;6868;52.544;13.416;2022-09-09T01:54:07;15.00;99.90
13596;DHT22;6868;52.544;13.416;2022-09-09T01:56:36;15.10;99.90
13596;DHT22;6868;52.544;13.416;2022-09-09T01:59:08;15.10;99.90
13596;DHT22;6868;52.544;13.416;2022-09-09T02:01:44;15.10;99.90
13596;DHT22;6868;52.544;13.416;2022-09-09T02:04:18;15.00;99.90
13596;DHT22;6868;52.544;13.416;2022-09-09T02:06:47;15.10;99.90
13596;DHT22;6868;52.544;13.416;2022-09-09T02:09:15;15.10;99.90
13596;DHT22;6868;52.544;13.416;2022-09-09T02:11:44;15.00;99.90
13596;DHT22;6868;52.544;13.416;2022-09-09T02:14:13;15.10;99.90
13596;DHT22;6868;52.544;13.416;2022-09-09T02:16:47;15.00;99.90
13596;DHT22;6868;52.544;13.416;2022-09-09T02:19:15;15.00;99.90
13596;DHT22;6868;52.544;13.416;2022-09-09T02:21:46;15.10;99.90
13596;DHT22;6868;52.544;13.416;2022-09-09T02:24:14;14.90;99.90
13596;DHT22;6868;52.544;13.416;2022-09-09T02:26:42;14.90;99.90
13596;DHT22;6868;52.544;13.416;2022-09-09T02:31:42;15.00;99.90
13596;DHT22;6868;52.544;13.416;2022-09-09T02:34:12;15.00;99.90
13596;DHT22;6868;52.544;13.416;2022-09-09T02:36:40;15.00;99.90
13596;DHT22;6868;52.544;13.416;2022-09-09T02:39:08;15.00;99.90
13596;DHT22;6868;52.544;13.416;2022-09-09T02:41:37;15.00;99.90
13596;DHT22;6868;52.544;13.416;2022-09-09T02:44:05;15.00;99.90
13596;DHT22;6868;52.544;13.416;2022-09-09T02:46:36;15.00;99.90
13596;DHT22;6868;52.544;13.416;2022-09-09T02:49:06;14.90;99.90
13596;DHT22;6868;52.544;13.416;2022-09-09T02:51:37;14.90;99.90
13596;DHT22;6868;52.544;13.416;2022-09-09T02:54:09;14.90;99.90
13596;DHT22;6868;52.544;13.416;2022-09-09T02:56:39;14.90;99.90
13596;DHT22;6868;52.544;13.416;2022-09-09T02:59:06;14.90;99.90
13596;DHT22;6868;52.544;13.416;2022-09-09T03:01:33;14.90;99.90
13596;DHT22;6868;52.544;13.416;2022-09-09T03:04:01;14.90;99.90
13596;DHT22;6868;52.544;13.416;2022-09-09T03:06:27;14.80;99.90
13596;DHT22;6868;52.544;13.416;2022-09-09T03:08:55;14.80;99.90
13596;DHT22;6868;52.544;13.416;2022-09-09T03:11:26;14.80;99.90
13596;DHT22;6868;52.544;13.416;2022-09-09T03:13:53;14.60;99.90
13596;DHT22;6868;52.544;13.416;2022-09-09T03:16:21;14.60;99.90
13596;DHT22;6868;52.544;13.416;2022-09-09T03:18:48;14.70;99.90
13596;DHT22;6868;52.544;13.416;2022-09-09T03:21:14;14.60;99.90
13596;DHT22;6868;52.544;13.416;2022-09-09T03:23:44;14.60;99.90
13596;DHT22;6868;52.544;13.416;2022-09-09T03:26:13;14.50;99.90
13596;DHT22;6868;52.544;13.416;2022-09-09T03:28:40;14.50;99.90
13596;DHT22;6868;52.544;13.416;2022-09-09T03:31:07;14.50;99.90
13596;DHT22;6868;52.544;13.416;2022-09-09T03:33:35;14.60;99.90
13596;DHT22;6868;52.544;13.416;2022-09-09T03:36:04;14.60;99.90
13596;DHT22;6868;52.544;13.416;2022-09-09T03:38:33;14.70;99.90
13596;DHT22;6868;52.544;13.416;2022-09-09T03:41:00;14.60;99.90
13596;DHT22;6868;52.544;13.416;2022-09-09T03:43:29;14.50;99.90
13596;DHT22;6868;52.544;13.416;2022-09-09T03:45:55;14.50;99.90
13596;DHT22;6868;52.544;13.416;2022-09-09T03:48:23;14.60;99.90
13596;DHT22;6868;52.544;13.416;2022-09-09T03:50:50;14.60;99.90
13596;DHT22;6868;52.544;13.416;2022-09-09T03:53:17;14.60;99.90
13596;DHT22;6868;52.544;13.416;2022-09-09T03:55:45;14.70;99.90
13596;DHT22;6868;52.544;13.416;2022-09-09T03:58:12;14.70;99.90
13596;DHT22;6868;52.544;13.416;2022-09-09T04:00:40;14.60;99.90
13596;DHT22;6868;52.544;13.416;2022-09-09T04:03:07;14.60;99.90
13596;DHT22;6868;52.544;13.416;2022-09-09T04:05:34;14.60;99.90
13596;DHT22;6868;52.544;13.416;2022-09-09T04:08:05;14.50;99.90
13596;DHT22;6868;52.544;13.416;2022-09-09T04:10:32;14.50;99.90
13596;DHT22;6868;52.544;13.416;2022-09-09T04:12:58;14.50;99.90
13596;DHT22;6868;52.544;13.416;2022-09-09T04:15:29;14.40;99.90
13596;DHT22;6868;52.544;13.416;2022-09-09T04:17:57;14.40;99.90
13596;DHT22;6868;52.544;13.416;2022-09-09T04:20:24;14.50;99.90
13596;DHT22;6868;52.544;13.416;2022-09-09T04:22:51;14.40;99.90
13596;DHT22;6868;52.544;13.416;2022-09-09T04:25:17;14.50;99.90
13596;DHT22;6868;52.544;13.416;2022-09-09T04:27:44;14.40;99.90
13596;DHT22;6868;52.544;13.416;2022-09-09T04:30:12;14.50;99.90
13596;DHT22;6868;52.544;13.416;2022-09-09T04:32:39;14.50;99.90
13596;DHT22;6868;52.544;13.416;2022-09-09T04:35:08;14.40;99.90
13596;DHT22;6868;52.544;13.416;2022-09-09T04:37:35;14.40;99.90
13596;DHT22;6868;52.544;13.416;2022-09-09T04:40:02;14.40;99.90
13596;DHT22;6868;52.544;13.416;2022-09-09T04:42:29;14.40;99.90
13596;DHT22;6868;52.544;13.416;2022-09-09T04:47:23;14.40;99.90
13596;DHT22;6868;52.544;13.416;2022-09-09T04:49:49;14.40;99.90
13596;DHT22;6868;52.544;13.416;2022-09-09T04:52:18;14.40;99.90
13596;DHT22;6868;52.544;13.416;2022-09-09T04:54:45;14.40;99.90
13596;DHT22;6868;52.544;13.416;2022-09-09T04:57:12;14.40;99.90
13596;DHT22;6868;52.544;13.416;2022-09-09T04:59:38;14.40;99.90
13596;DHT22;6868;52.544;13.416;2022-09-09T05:02:05;14.40;99.90
13596;DHT22;6868;52.544;13.416;2022-09-09T05:04:32;14.50;99.90
13596;DHT22;6868;52.544;13.416;2022-09-09T05:06:59;14.50;99.90
13596;DHT22;6868;52.544;13.416;2022-09-09T05:09:27;14.60;99.90
13596;DHT22;6868;52.544;13.416;2022-09-09T05:11:55;14.60;99.90
13596;DHT22;6868;52.544;13.416;2022-09-09T05:14:23;14.70;99.90
13596;DHT22;6868;52.544;13.416;2022-09-09T05:16:50;14.80;99.90
13596;DHT22;6868;52.544;13.416;2022-09-09T05:19:16;14.80;99.90
13596;DHT22;6868;52.544;13.416;2022-09-09T05:21:45;14.90;99.90
13596;DHT22;6868;52.544;13.416;2022-09-09T05:24:11;15.00;99.90
13596;DHT22;6868;52.544;13.416;2022-09-09T05:26:40;15.00;99.90
13596;DHT22;6868;52.544;13.416;2022-09-09T05:29:06;15.10;99.90
13596;DHT22;6868;52.544;13.416;2022-09-09T05:31:33;15.20;99.90
13596;DHT22;6868;52.544;13.416;2022-09-09T05:34:00;15.30;99.90
13596;DHT22;6868;52.544;13.416;2022-09-09T05:36:27;15.40;99.90
13596;DHT22;6868;52.544;13.416;2022-09-09T05:38:53;15.60;99.90
13596;DHT22;6868;52.544;13.416;2022-09-09T05:41:20;16.30;99.90
13596;DHT22;6868;52.544;13.416;2022-09-09T05:43:51;17.10;99.90
13596;DHT22;6868;52.544;13.416;2022-09-09T05:46:18;17.90;99.90
13596;DHT22;6868;52.544;13.416;2022-09-09T05:48:50;18.20;99.90
13596;DHT22;6868;52.544;13.416;2022-09-09T05:51:19;18.30;99.90
13596;DHT22;6868;52.544;13.416;2022-09-09T05:53:47;18.10;99.90
13596;DHT22;6868;52.544;13.416;2022-09-09T05:56:14;18.30;99.90
13596;DHT22;6868;52.544;13.416;2022-09-09T05:58:41;18.40;99.90
13596;DHT22;6868;52.544;13.416;2022-09-09T06:01:11;18.50;99.90
13596;DHT22;6868;52.544;13.416;2022-09-09T06:03:39;18.50;99.90
13596;DHT22;6868;52.544;13.416;2022-09-09T06:06:07;18.70;99.90
13596;DHT22;6868;52.544;13.416;2022-09-09T06:08:34;19.00;99.90
13596;DHT22;6868;52.544;13.416;2022-09-09T06:11:02;19.20;99.90
13596;DHT22;6868;52.544;13.416;2022-09-09T06:13:29;19.30;99.90
13596;DHT22;6868;52.544;13.416;2022-09-09T06:15:57;19.30;99.90
13596;DHT22;6868;52.544;13.416;2022-09-09T06:18:25;19.30;99.90
13596;DHT22;6868;52.544;13.416;2022-09-09T06:20:56;19.30;99.90
13596;DHT22;6868;52.544;13.416;2022-09-09T06:23:23;19.40;99.90
13596;DHT22;6868;52.544;13.416;2022-09-09T06:25:50;19.70;99.90
13596;DHT22;6868;52.544;13.416;2022-09-09T06:28:16;20.00;99.90
13596;DHT22;6868;52.544;13.416;2022-09-09T06:30:44;20.70;99.90
13596;DHT22;6868;52.544;13.416;2022-09-09T06:33:12;21.40;99.90
13596;DHT22;6868;52.544;13.416;2022-09-09T18:42:27;19.50;99.90
13596;DHT22;6868;52.544;13.416;2022-09-09T18:44:57;18.50;99.90
13596;DHT22;6868;52.544;13.416;2022-09-09T18:47:24;18.40;99.90
13596;DHT22;6868;52.544;13.416;2022-09-09T18:49:51;18.40;99.90
13596;DHT22;6868;52.544;13.416;2022-09-09T18:52:17;18.30;99.90
13596;DHT22;6868;52.544;13.416;2022-09-09T18:54:46;18.30;99.90
13596;DHT22;6868;52.544;13.416;2022-09-09T18:57:16;18.20;99.90
13596;DHT22;6868;52.544;13.416;2022-09-09T18:59:44;18.20;99.90
13596;DHT22;6868;52.544;13.416;2022-09-09T19:02:11;18.20;99.90
13596;DHT22;6868;52.544;13.416;2022-09-09T19:04:38;18.10;99.90
13596;DHT22;6868;52.544;13.416;2022-09-09T19:07:06;18.10;99.90
13596;DHT22;6868;52.544;13.416;2022-09-09T19:09:33;18.10;99.90
13596;DHT22;6868;52.544;13.416;2022-09-09T19:12:01;18.00;99.90
13596;DHT22;6868;52.544;13.416;2022-09-09T19:14:30;18.00;99.90
13596;DHT22;6868;52.544;13.416;2022-09-09T19:16:58;18.00;99.90
13596;DHT22;6868;52.544;13.416;2022-09-09T19:19:26;17.90;99.90
13596;DHT22;6868;52.544;13.416;2022-09-09T19:21:56;17.90;99.90
13596;DHT22;6868;52.544;13.416;2022-09-09T19:24:24;17.90;99.90
13596;DHT22;6868;52.544;13.416;2022-09-09T19:26:53;17.80;99.90
13596;DHT22;6868;52.544;13.416;2022-09-09T19:29:22;17.80;99.90
13596;DHT22;6868;52.544;13.416;2022-09-09T19:31:50;17.70;99.90
13596;DHT22;6868;52.544;13.416;2022-09-09T19:34:22;17.60;99.90
13596;DHT22;6868;52.544;13.416;2022-09-09T19:36:50;17.60;99.90
13596;DHT22;6868;52.544;13.416;2022-09-09T19:39:17;17.60;99.90
13596;DHT22;6868;52.544;13.416;2022-09-09T19:41:44;17.50;99.90
13596;DHT22;6868;52.544;13.416;2022-09-09T19:44:17;17.50;99.90
13596;DHT22;6868;52.544;13.416;2022-09-09T19:46:44;17.50;99.90
13596;DHT22;6868;52.544;13.416;2022-09-09T19:49:11;17.50;99.90
13596;DHT22;6868;52.544;13.416;2022-09-09T19:51:41;17.50;99.90
13596;DHT22;6868;52.544;13.416;2022-09-09T19:54:08;17.40;99.90
13596;DHT22;6868;52.544;13.416;2022-09-09T19:56:37;17.50;99.90
13596;DHT22;6868;52.544;13.416;2022-09-09T19:59:05;17.40;99.90
13596;DHT22;6868;52.544;13.416;2022-09-09T20:01:33;17.40;99.90
13596;DHT22;6868;52.544;13.416;2022-09-09T20:04:01;17.40;99.90
13596;DHT22;6868;52.544;13.416;2022-09-09T20:06:28;17.40;99.90
13596;DHT22;6868;52.544;13.416;2022-09-09T20:08:58;17.40;99.90
13596;DHT22;6868;52.544;13.416;2022-09-09T20:11:25;17.40;99.90
13596;DHT22;6868;52.544;13.416;2022-09-09T20:13:53;17.40;99.90
13596;DHT22;6868;52.544;13.416;2022-09-09T20:16:20;17.30;99.90
13596;DHT22;6868;52.544;13.416;2022-09-09T20:21:15;17.40;99.90
13596;DHT22;6868;52.544;13.416;2022-09-09T20:23:42;17.30;99.90
13596;DHT22;6868;52.544;13.416;2022-09-09T20:26:12;17.40;99.90
13596;DHT22;6868;52.544;13.416;2022-09-09T20:28:39;17.40;99.90
13596;DHT22;6868;52.544;13.416;2022-09-09T20:31:07;17.40;99.90
13596;DHT22;6868;52.544;13.416;2022-09-09T20:33:35;17.30;99.90
13596;DHT22;6868;52.544;13.416;2022-09-09T20:36:08;17.30;99.90
13596;DHT22;6868;52.544;13.416;2022-09-09T20:38:35;17.20;99.90
13596;DHT22;6868;52.544;13.416;2022-09-09T20:41:03;17.20;99.90
13596;DHT22;6868;52.544;13.416;2022-09-09T20:43:31;17.20;99.90
13596;DHT22;6868;52.544;13.416;2022-09-09T20:46:00;17.10;99.90
13596;DHT22;6868;52.544;13.416;2022-09-09T20:48:27;17.20;99.90
13596;DHT22;6868;52.544;13.416;2022-09-09T20:50:53;17.30;99.90
13596;DHT22;6868;52.544;13.416;2022-09-09T20:53:20;17.30;99.90
13596;DHT22;6868;52.544;13.416;2022-09-09T20:55:47;17.20;99.90
13596;DHT22;6868;52.544;13.416;2022-09-09T20:58:15;17.30;99.90
13596;DHT22;6868;52.544;13.416;2022-09-09T21:00:43;17.20;99.90
13596;DHT22;6868;52.544;13.416;2022-09-09T21:03:10;17.30;99.90
13596;DHT22;6868;52.544;13.416;2022-09-09T21:05:36;17.30;99.90
13596;DHT22;6868;52.544;13.416;2022-09-09T21:08:04;17.30;99.90
13596;DHT22;6868;52.544;13.416;2022-09-09T21:10:31;17.30;99.90
13596;DHT22;6868;52.544;13.416;2022-09-09T21:12:57;17.30;99.90
13596;DHT22;6868;52.544;13.416;2022-09-09T21:15:25;17.30;99.90
13596;DHT22;6868;52.544;13.416;2022-09-09T21:17:53;17.20;99.90
13596;DHT22;6868;52.544;13.416;2022-09-09T21:20:20;17.20;99.90
13596;DHT22;6868;52.544;13.416;2022-09-09T21:22:47;17.20;99.90
13596;DHT22;6868;52.544;13.416;2022-09-09T21:25:14;17.20;99.90
13596;DHT22;6868;52.544;13.416;2022-09-09T21:27:40;17.10;99.90
13596;DHT22;6868;52.544;13.416;2022-09-09T21:30:07;17.00;99.90
13596;DHT22;6868;52.544;13.416;2022-09-09T21:32:35;17.00;99.90
13596;DHT22;6868;52.544;13.416;2022-09-09T21:35:05;16.90;99.90
13596;DHT22;6868;52.544;13.416;2022-09-09T21:37:32;16.90;99.90
13596;DHT22;6868;52.544;13.416;2022-09-09T21:40:02;16.90;99.90
13596;DHT22;6868;52.544;13.416;2022-09-09T21:42:28;16.90;99.90
13596;DHT22;6868;52.544;13.416;2022-09-09T21:44:55;16.90;99.90
13596;DHT22;6868;52.544;13.416;2022-09-09T21:47:22;16.90;99.90
13596;DHT22;6868;52.544;13.416;2022-09-09T21:49:48;16.90;99.90
13596;DHT22;6868;52.544;13.416;2022-09-09T21:52:16;16.90;99.90
13596;DHT22;6868;52.544;13.416;2022-09-09T21:54:43;16.80;99.90
13596;DHT22;6868;52.544;13.416;2022-09-09T21:57:10;16.80;99.90
13596;DHT22;6868;52.544;13.416;2022-09-09T21:59:38;16.80;99.90
13596;DHT22;6868;52.544;13.416;2022-09-09T22:02:06;16.70;99.90
13596;DHT22;6868;52.544;13.416;2022-09-09T22:04:34;16.60;99.90
13596;DHT22;6868;52.544;13.416;2022-09-09T22:07:01;16.60;99.90
13596;DHT22;6868;52.544;13.416;2022-09-09T22:09:31;16.70;99.90
13596;DHT22;6868;52.544;13.416;2022-09-09T22:11:59;16.70;99.90
13596;DHT22;6868;52.544;13.416;2022-09-09T22:14:25;16.70;99.90
13596;DHT22;6868;52.544;13.416;2022-09-09T22:16:53;16.70;99.90
13596;DHT22;6868;52.544;13.416;2022-09-09T22:19:20;16.80;99.90
13596;DHT22;6868;52.544;13.416;2022-09-09T22:21:48;16.70;99.90
13596;DHT22;6868;52.544;13.416;2022-09-09T22:24:14;16.70;99.90
13596;DHT22;6868;52.544;13.416;2022-09-09T22:26:43;16.70;99.90
13596;DHT22;6868;52.544;13.416;2022-09-09T22:29:10;16.70;99.90
13596;DHT22;6868;52.544;13.416;2022-09-09T22:31:37;16.60;99.90
13596;DHT22;6868;52.544;13.416;2022-09-09T22:34:04;16.50;99.90
13596;DHT22;6868;52.544;13.416;2022-09-09T22:36:31;16.50;99.90
13596;DHT22;6868;52.544;13.416;2022-09-09T22:38:59;16.40;99.90
13596;DHT22;6868;52.544;13.416;2022-09-09T22:41:29;16.50;99.90
13596;DHT22;6868;52.544;13.416;2022-09-09T22:44:00;16.50;99.90
13596;DHT22;6868;52.544;13.416;2022-09-09T22:46:27;16.50;99.90
13596;DHT22;6868;52.544;13.416;2022-09-09T22:48:54;16.40;99.90
13596;DHT22;6868;52.544;13.416;2022-09-09T22:51:21;16.50;99.90
13596;DHT22;6868;52.544;13.416;2022-09-09T22:53:48;16.40;99.90
13596;DHT22;6868;52.544;13.416;2022-09-09T22:56:15;16.40;99.90
13596;DHT22;6868;52.544;13.416;2022-09-09T22:58:42;16.50;99.90
13596;DHT22;6868;52.544;13.416;2022-09-09T23:01:11;16.50;99.90
13596;DHT22;6868;52.544;13.416;2022-09-09T23:03:42;16.60;99.90
13596;DHT22;6868;52.544;13.416;2022-09-09T23:06:15;16.60;99.90
13596;DHT22;6868;52.544;13.416;2022-09-09T23:08:48;16.60;99.90
13596;DHT22;6868;52.544;13.416;2022-09-09T23:11:18;16.50;99.90
13596;DHT22;6868;52.544;13.416;2022-09-09T23:13:46;16.40;99.90
13596;DHT22;6868;52.544;13.416;2022-09-09T23:16:19;16.40;99.90
13596;DHT22;6868;52.544;13.416;2022-09-09T23:18:46;16.40;99.90
13596;DHT22;6868;52.544;13.416;2022-09-09T23:21:14;16.40;99.90
13596;DHT22;6868;52.544;13.416;2022-09-09T23:23:42;16.50;99.90
13596;DHT22;6868;52.544;13.416;2022-09-09T23:28:37;16.40;99.90
13596;DHT22;6868;52.544;13.416;2022-09-09T23:31:10;16.40;99.90
13596;DHT22;6868;52.544;13.416;2022-09-09T23:33:42;16.50;99.90
13596;DHT22;6868;52.544;13.416;2022-09-09T23:36:12;16.50;99.90
13596;DHT22;6868;52.544;13.416;2022-09-09T23:38:43;16.50;99.90
13596;DHT22;6868;52.544;13.416;2022-09-09T23:41:13;16.50;99.90
13596;DHT22;6868;52.544;13.416;2022-09-09T23:43:43;16.40;99.90
13596;DHT22;6868;52.544;13.416;2022-09-09T23:46:11;16.40;99.90
13596;DHT22;6868;52.544;13.416;2022-09-09T23:48:39;16.30;99.90
13596;DHT22;6868;52.544;13.416;2022-09-09T23:51:08;16.30;99.90
13596;DHT22;6868;52.544;13.416;2022-09-09T23:53:35;16.20;99.90
13596;DHT22;6868;52.544;13.416;2022-09-09T23:56:02;16.20;99.90
13596;DHT22;6868;52.544;13.416;2022-09-09T23:58:30;16.20;99.90
